sensor_id;sensor_type;location;lat;lon;timestamp;P1;durP1;ratioP1;P2;durP2;ratioP2
47251;SDS011;32991;51.374;11.586;2023-05-10T00:00:25;10.65;;;6.45;;
47251;SDS011;32991;51.374;11.586;2023-05-10T00:02:52;8.20;;;6.60;;
47251;SDS011;32991;51.374;11.586;2023-05-10T00:05:19;7.07;;;6.28;;
47251;SDS011;32991;51.374;11.586;2023-05-10T00:07:45;7.78;;;6.75;;
47251;SDS011;32991;51.374;11.586;2023-05-10T00:10:12;8.35;;;7.05;;
47251;SDS011;32991;51.374;11.586;2023-05-10T00:12:39;8.43;;;6.60;;
47251;SDS011;32991;51.374;11.586;2023-05-10T00:15:06;8.63;;;6.45;;
47251;SDS011;32991;51.374;11.586;2023-05-10T00:17:33;8.38;;;6.65;;
47251;SDS011;32991;51.374;11.586;2023-05-10T00:19:59;9.05;;;6.90;;
47251;SDS011;32991;51.374;11.586;2023-05-10T00:22:26;7.78;;;6.93;;
47251;SDS011;32991;51.374;11.586;2023-05-10T00:24:53;10.70;;;7.30;;
47251;SDS011;32991;51.374;11.586;2023-05-10T00:27:19;7.78;;;6.97;;
47251;SDS011;32991;51.374;11.586;2023-05-10T00:29:46;8.25;;;6.57;;
47251;SDS011;32991;51.374;11.586;2023-05-10T00:32:12;12.20;;;6.90;;
47251;SDS011;32991;51.374;11.586;2023-05-10T00:34:40;7.70;;;6.25;;
47251;SDS011;32991;51.374;11.586;2023-05-10T00:37:06;6.78;;;5.97;;
47251;SDS011;32991;51.374;11.586;2023-05-10T00:39:33;7.57;;;6.78;;
47251;SDS011;32991;51.374;11.586;2023-05-10T00:42:00;8.02;;;7.22;;
47251;SDS011;32991;51.374;11.586;2023-05-10T00:44:27;8.70;;;7.10;;
47251;SDS011;32991;51.374;11.586;2023-05-10T00:46:53;7.88;;;7.15;;
47251;SDS011;32991;51.374;11.586;2023-05-10T00:49:20;8.30;;;7.28;;
47251;SDS011;32991;51.374;11.586;2023-05-10T00:51:47;9.43;;;7.50;;
47251;SDS011;32991;51.374;11.586;2023-05-10T00:54:14;8.95;;;7.22;;
47251;SDS011;32991;51.374;11.586;2023-05-10T00:56:41;9.48;;;7.13;;
47251;SDS011;32991;51.374;11.586;2023-05-10T00:59:11;9.65;;;7.57;;
47251;SDS011;32991;51.374;11.586;2023-05-10T01:01:37;10.90;;;7.40;;
47251;SDS011;32991;51.374;11.586;2023-05-10T01:04:05;11.02;;;7.50;;
47251;SDS011;32991;51.374;11.586;2023-05-10T01:06:31;8.45;;;7.40;;
47251;SDS011;32991;51.374;11.586;2023-05-10T01:08:58;10.18;;;7.70;;
47251;SDS011;32991;51.374;11.586;2023-05-10T01:11:25;13.65;;;7.72;;
47251;SDS011;32991;51.374;11.586;2023-05-10T01:13:52;10.43;;;7.72;;
47251;SDS011;32991;51.374;11.586;2023-05-10T01:16:22;8.07;;;7.35;;
47251;SDS011;32991;51.374;11.586;2023-05-10T01:18:50;10.27;;;7.40;;
47251;SDS011;32991;51.374;11.586;2023-05-10T01:24:20;8.10;;;7.30;;
47251;SDS011;32991;51.374;11.586;2023-05-10T01:27:14;8.10;;;6.87;;
47251;SDS011;32991;51.374;11.586;2023-05-10T01:29:50;8.15;;;7.32;;
47251;SDS011;32991;51.374;11.586;2023-05-10T01:35:53;10.18;;;7.45;;
47251;SDS011;32991;51.374;11.586;2023-05-10T01:38:39;8.60;;;6.97;;
47251;SDS011;32991;51.374;11.586;2023-05-10T01:43:57;8.45;;;7.18;;
47251;SDS011;32991;51.374;11.586;2023-05-10T01:46:36;9.50;;;7.13;;
47251;SDS011;32991;51.374;11.586;2023-05-10T01:49:08;13.82;;;7.10;;
47251;SDS011;32991;51.374;11.586;2023-05-10T01:51:37;11.13;;;7.25;;
47251;SDS011;32991;51.374;11.586;2023-05-10T01:54:06;9.35;;;6.88;;
47251;SDS011;32991;51.374;11.586;2023-05-10T01:56:34;9.07;;;7.63;;
47251;SDS011;32991;51.374;11.586;2023-05-10T01:59:03;8.10;;;7.30;;
47251;SDS011;32991;51.374;11.586;2023-05-10T02:01:33;9.60;;;7.47;;
47251;SDS011;32991;51.374;11.586;2023-05-10T02:04:00;8.02;;;7.25;;
47251;SDS011;32991;51.374;11.586;2023-05-10T02:06:28;9.55;;;7.65;;
47251;SDS011;32991;51.374;11.586;2023-05-10T02:08:54;8.57;;;7.63;;
47251;SDS011;32991;51.374;11.586;2023-05-10T02:11:21;9.27;;;7.63;;
47251;SDS011;32991;51.374;11.586;2023-05-10T02:13:49;8.05;;;7.35;;
47251;SDS011;32991;51.374;11.586;2023-05-10T02:16:16;10.82;;;7.38;;
47251;SDS011;32991;51.374;11.586;2023-05-10T02:18:44;8.15;;;7.35;;
47251;SDS011;32991;51.374;11.586;2023-05-10T02:21:13;7.50;;;6.57;;
47251;SDS011;32991;51.374;11.586;2023-05-10T02:23:40;9.85;;;7.70;;
47251;SDS011;32991;51.374;11.586;2023-05-10T02:26:07;11.02;;;7.25;;
47251;SDS011;32991;51.374;11.586;2023-05-10T02:28:34;9.00;;;7.90;;
47251;SDS011;32991;51.374;11.586;2023-05-10T02:31:02;13.63;;;7.20;;
47251;SDS011;32991;51.374;11.586;2023-05-10T02:33:28;7.97;;;7.18;;
47251;SDS011;32991;51.374;11.586;2023-05-10T02:35:56;7.63;;;6.75;;
47251;SDS011;32991;51.374;11.586;2023-05-10T02:38:22;10.35;;;6.55;;
47251;SDS011;32991;51.374;11.586;2023-05-10T02:40:50;8.35;;;7.18;;
47251;SDS011;32991;51.374;11.586;2023-05-10T02:43:17;7.97;;;7.03;;
47251;SDS011;32991;51.374;11.586;2023-05-10T02:45:45;11.32;;;7.15;;
47251;SDS011;32991;51.374;11.586;2023-05-10T02:48:13;7.35;;;6.55;;
47251;SDS011;32991;51.374;11.586;2023-05-10T02:50:41;8.30;;;7.40;;
47251;SDS011;32991;51.374;11.586;2023-05-10T02:53:10;9.63;;;7.55;;
47251;SDS011;32991;51.374;11.586;2023-05-10T02:55:39;11.85;;;7.60;;
47251;SDS011;32991;51.374;11.586;2023-05-10T02:58:06;8.63;;;7.32;;
47251;SDS011;32991;51.374;11.586;2023-05-10T03:00:33;12.07;;;6.93;;
47251;SDS011;32991;51.374;11.586;2023-05-10T03:02:59;8.52;;;6.78;;
47251;SDS011;32991;51.374;11.586;2023-05-10T03:05:27;8.07;;;6.18;;
47251;SDS011;32991;51.374;11.586;2023-05-10T03:07:55;7.03;;;6.07;;
47251;SDS011;32991;51.374;11.586;2023-05-10T03:10:24;7.32;;;6.55;;
47251;SDS011;32991;51.374;11.586;2023-05-10T03:18:22;10.30;;;7.03;;
47251;SDS011;32991;51.374;11.586;2023-05-10T03:20:50;7.78;;;6.15;;
47251;SDS011;32991;51.374;11.586;2023-05-10T03:25:44;7.03;;;6.30;;
47251;SDS011;32991;51.374;11.586;2023-05-10T03:28:13;7.07;;;6.38;;
47251;SDS011;32991;51.374;11.586;2023-05-10T03:30:41;6.75;;;5.95;;
47251;SDS011;32991;51.374;11.586;2023-05-10T03:33:10;6.65;;;5.85;;
47251;SDS011;32991;51.374;11.586;2023-05-10T03:35:41;8.38;;;5.80;;
47251;SDS011;32991;51.374;11.586;2023-05-10T03:38:08;6.40;;;5.80;;
47251;SDS011;32991;51.374;11.586;2023-05-10T03:40:34;6.63;;;6.00;;
47251;SDS011;32991;51.374;11.586;2023-05-10T03:43:01;9.38;;;6.38;;
47251;SDS011;32991;51.374;11.586;2023-05-10T03:45:27;6.10;;;5.50;;
47251;SDS011;32991;51.374;11.586;2023-05-10T03:47:54;8.50;;;6.22;;
47251;SDS011;32991;51.374;11.586;2023-05-10T03:50:21;13.55;;;5.90;;
47251;SDS011;32991;51.374;11.586;2023-05-10T03:52:48;9.25;;;5.75;;
47251;SDS011;32991;51.374;11.586;2023-05-10T03:55:15;6.07;;;5.38;;
47251;SDS011;32991;51.374;11.586;2023-05-10T03:57:42;7.03;;;5.50;;
47251;SDS011;32991;51.374;11.586;2023-05-10T04:00:10;7.82;;;5.80;;
47251;SDS011;32991;51.374;11.586;2023-05-10T04:02:42;7.65;;;5.70;;
47251;SDS011;32991;51.374;11.586;2023-05-10T04:05:14;9.88;;;6.03;;
47251;SDS011;32991;51.374;11.586;2023-05-10T04:07:41;8.60;;;5.80;;
47251;SDS011;32991;51.374;11.586;2023-05-10T04:10:07;7.00;;;6.30;;
47251;SDS011;32991;51.374;11.586;2023-05-10T04:12:34;6.68;;;6.05;;
47251;SDS011;32991;51.374;11.586;2023-05-10T04:15:01;6.43;;;5.68;;
47251;SDS011;32991;51.374;11.586;2023-05-10T04:17:27;7.97;;;6.20;;
47251;SDS011;32991;51.374;11.586;2023-05-10T04:19:54;6.57;;;5.53;;
47251;SDS011;32991;51.374;11.586;2023-05-10T04:22:21;8.77;;;5.50;;
47251;SDS011;32991;51.374;11.586;2023-05-10T04:24:47;6.93;;;5.80;;
47251;SDS011;32991;51.374;11.586;2023-05-10T04:27:14;7.35;;;6.10;;
47251;SDS011;32991;51.374;11.586;2023-05-10T04:29:40;7.00;;;5.95;;
47251;SDS011;32991;51.374;11.586;2023-05-10T04:32:07;7.57;;;5.60;;
47251;SDS011;32991;51.374;11.586;2023-05-10T04:34:34;9.55;;;5.65;;
47251;SDS011;32991;51.374;11.586;2023-05-10T04:37:00;11.73;;;5.95;;
47251;SDS011;32991;51.374;11.586;2023-05-10T04:39:27;6.75;;;6.05;;
47251;SDS011;32991;51.374;11.586;2023-05-10T04:41:53;6.70;;;5.68;;
47251;SDS011;32991;51.374;11.586;2023-05-10T04:44:20;10.02;;;6.07;;
47251;SDS011;32991;51.374;11.586;2023-05-10T04:46:46;8.30;;;5.65;;
47251;SDS011;32991;51.374;11.586;2023-05-10T04:49:13;6.70;;;6.00;;
47251;SDS011;32991;51.374;11.586;2023-05-10T04:51:40;10.63;;;6.18;;
47251;SDS011;32991;51.374;11.586;2023-05-10T04:54:07;6.30;;;5.68;;
47251;SDS011;32991;51.374;11.586;2023-05-10T04:56:33;6.28;;;5.65;;
47251;SDS011;32991;51.374;11.586;2023-05-10T04:59:00;6.05;;;5.45;;
47251;SDS011;32991;51.374;11.586;2023-05-10T05:01:26;6.55;;;5.45;;
47251;SDS011;32991;51.374;11.586;2023-05-10T05:03:53;6.30;;;5.70;;
47251;SDS011;32991;51.374;11.586;2023-05-10T05:06:20;7.78;;;5.97;;
47251;SDS011;32991;51.374;11.586;2023-05-10T05:08:51;7.40;;;5.68;;
47251;SDS011;32991;51.374;11.586;2023-05-10T05:11:17;9.18;;;5.20;;
47251;SDS011;32991;51.374;11.586;2023-05-10T05:13:44;6.60;;;5.88;;
47251;SDS011;32991;51.374;11.586;2023-05-10T05:16:10;6.38;;;5.78;;
47251;SDS011;32991;51.374;11.586;2023-05-10T05:18:37;6.18;;;5.57;;
47251;SDS011;32991;51.374;11.586;2023-05-10T05:21:13;9.77;;;5.95;;
47251;SDS011;32991;51.374;11.586;2023-05-10T05:23:43;7.03;;;5.85;;
47251;SDS011;32991;51.374;11.586;2023-05-10T05:26:09;6.63;;;5.97;;
47251;SDS011;32991;51.374;11.586;2023-05-10T05:28:36;7.28;;;5.20;;
47251;SDS011;32991;51.374;11.586;2023-05-10T05:31:04;7.40;;;5.93;;
47251;SDS011;32991;51.374;11.586;2023-05-10T05:33:31;6.40;;;4.93;;
47251;SDS011;32991;51.374;11.586;2023-05-10T05:36:00;6.47;;;5.50;;
47251;SDS011;32991;51.374;11.586;2023-05-10T05:38:27;5.32;;;4.55;;
47251;SDS011;32991;51.374;11.586;2023-05-10T05:40:53;6.22;;;4.47;;
47251;SDS011;32991;51.374;11.586;2023-05-10T05:43:20;6.03;;;4.45;;
47251;SDS011;32991;51.374;11.586;2023-05-10T05:45:46;6.82;;;4.35;;
47251;SDS011;32991;51.374;11.586;2023-05-10T05:48:13;7.97;;;4.30;;
47251;SDS011;32991;51.374;11.586;2023-05-10T05:50:39;5.68;;;4.10;;
47251;SDS011;32991;51.374;11.586;2023-05-10T05:53:06;5.65;;;4.00;;
47251;SDS011;32991;51.374;11.586;2023-05-10T05:55:32;6.07;;;4.20;;
47251;SDS011;32991;51.374;11.586;2023-05-10T05:57:59;5.90;;;4.25;;
47251;SDS011;32991;51.374;11.586;2023-05-10T06:00:25;4.57;;;3.97;;
47251;SDS011;32991;51.374;11.586;2023-05-10T06:02:52;8.38;;;4.03;;
47251;SDS011;32991;51.374;11.586;2023-05-10T06:05:18;6.35;;;4.35;;
47251;SDS011;32991;51.374;11.586;2023-05-10T06:07:46;7.57;;;4.10;;
47251;SDS011;32991;51.374;11.586;2023-05-10T06:10:12;4.35;;;3.85;;
47251;SDS011;32991;51.374;11.586;2023-05-10T06:12:39;5.55;;;3.72;;
47251;SDS011;32991;51.374;11.586;2023-05-10T06:15:06;7.85;;;4.18;;
47251;SDS011;32991;51.374;11.586;2023-05-10T06:17:32;6.30;;;3.90;;
47251;SDS011;32991;51.374;11.586;2023-05-10T06:19:59;8.77;;;4.13;;
47251;SDS011;32991;51.374;11.586;2023-05-10T06:22:25;5.47;;;4.10;;
47251;SDS011;32991;51.374;11.586;2023-05-10T06:24:52;6.78;;;4.30;;
47251;SDS011;32991;51.374;11.586;2023-05-10T06:27:18;4.93;;;3.75;;
47251;SDS011;32991;51.374;11.586;2023-05-10T06:29:45;7.15;;;4.63;;
47251;SDS011;32991;51.374;11.586;2023-05-10T06:32:12;6.18;;;4.32;;
47251;SDS011;32991;51.374;11.586;2023-05-10T06:34:38;5.90;;;4.10;;
47251;SDS011;32991;51.374;11.586;2023-05-10T06:37:05;7.22;;;4.60;;
47251;SDS011;32991;51.374;11.586;2023-05-10T06:39:31;5.82;;;4.03;;
47251;SDS011;32991;51.374;11.586;2023-05-10T06:41:58;5.90;;;4.03;;
47251;SDS011;32991;51.374;11.586;2023-05-10T06:44:30;5.93;;;4.70;;
47251;SDS011;32991;51.374;11.586;2023-05-10T06:46:57;5.47;;;4.50;;
47251;SDS011;32991;51.374;11.586;2023-05-10T06:49:23;5.05;;;4.38;;
47251;SDS011;32991;51.374;11.586;2023-05-10T06:51:50;8.90;;;4.30;;
47251;SDS011;32991;51.374;11.586;2023-05-10T06:54:16;5.20;;;4.40;;
47251;SDS011;32991;51.374;11.586;2023-05-10T06:56:43;8.52;;;4.18;;
47251;SDS011;32991;51.374;11.586;2023-05-10T06:59:10;4.72;;;4.22;;
47251;SDS011;32991;51.374;11.586;2023-05-10T07:01:36;6.43;;;4.55;;
47251;SDS011;32991;51.374;11.586;2023-05-10T07:04:03;5.03;;;4.25;;
47251;SDS011;32991;51.374;11.586;2023-05-10T07:06:30;6.35;;;4.57;;
47251;SDS011;32991;51.374;11.586;2023-05-10T07:08:59;6.13;;;4.50;;
47251;SDS011;32991;51.374;11.586;2023-05-10T07:11:26;9.18;;;4.05;;
47251;SDS011;32991;51.374;11.586;2023-05-10T07:13:53;5.47;;;4.35;;
47251;SDS011;32991;51.374;11.586;2023-05-10T07:16:19;6.40;;;4.40;;
47251;SDS011;32991;51.374;11.586;2023-05-10T07:18:47;6.32;;;4.43;;
47251;SDS011;32991;51.374;11.586;2023-05-10T07:21:14;6.72;;;4.40;;
47251;SDS011;32991;51.374;11.586;2023-05-10T07:23:40;6.28;;;4.95;;
47251;SDS011;32991;51.374;11.586;2023-05-10T07:26:10;4.97;;;4.20;;
47251;SDS011;32991;51.374;11.586;2023-05-10T07:28:36;5.68;;;4.68;;
47251;SDS011;32991;51.374;11.586;2023-05-10T07:31:03;5.38;;;4.55;;
47251;SDS011;32991;51.374;11.586;2023-05-10T07:33:30;5.53;;;4.65;;
47251;SDS011;32991;51.374;11.586;2023-05-10T07:35:57;6.10;;;4.55;;
47251;SDS011;32991;51.374;11.586;2023-05-10T07:38:23;6.03;;;4.90;;
47251;SDS011;32991;51.374;11.586;2023-05-10T07:40:50;7.85;;;4.57;;
47251;SDS011;32991;51.374;11.586;2023-05-10T07:43:16;4.85;;;4.35;;
47251;SDS011;32991;51.374;11.586;2023-05-10T07:45:43;6.03;;;4.50;;
47251;SDS011;32991;51.374;11.586;2023-05-10T07:48:09;4.35;;;3.95;;
47251;SDS011;32991;51.374;11.586;2023-05-10T07:50:36;6.15;;;4.28;;
47251;SDS011;32991;51.374;11.586;2023-05-10T07:53:02;4.82;;;4.30;;
47251;SDS011;32991;51.374;11.586;2023-05-10T07:55:29;5.45;;;3.80;;
47251;SDS011;32991;51.374;11.586;2023-05-10T07:57:56;5.80;;;3.88;;
47251;SDS011;32991;51.374;11.586;2023-05-10T08:00:22;4.97;;;4.00;;
47251;SDS011;32991;51.374;11.586;2023-05-10T08:02:49;5.97;;;4.28;;
47251;SDS011;32991;51.374;11.586;2023-05-10T08:05:16;8.95;;;4.35;;
47251;SDS011;32991;51.374;11.586;2023-05-10T08:07:42;8.45;;;4.95;;
47251;SDS011;32991;51.374;11.586;2023-05-10T08:10:09;4.43;;;4.00;;
47251;SDS011;32991;51.374;11.586;2023-05-10T08:12:37;5.28;;;4.70;;
47251;SDS011;32991;51.374;11.586;2023-05-10T08:15:04;6.60;;;4.70;;
47251;SDS011;32991;51.374;11.586;2023-05-10T08:17:31;5.20;;;4.10;;
47251;SDS011;32991;51.374;11.586;2023-05-10T08:19:58;5.78;;;4.22;;
47251;SDS011;32991;51.374;11.586;2023-05-10T08:22:24;7.28;;;4.78;;
47251;SDS011;32991;51.374;11.586;2023-05-10T08:24:51;4.57;;;4.18;;
47251;SDS011;32991;51.374;11.586;2023-05-10T08:27:17;5.20;;;4.18;;
47251;SDS011;32991;51.374;11.586;2023-05-10T08:29:44;7.00;;;4.75;;
47251;SDS011;32991;51.374;11.586;2023-05-10T08:32:15;4.60;;;4.20;;
47251;SDS011;32991;51.374;11.586;2023-05-10T08:34:42;5.70;;;4.45;;
47251;SDS011;32991;51.374;11.586;2023-05-10T08:37:09;4.40;;;4.00;;
47251;SDS011;32991;51.374;11.586;2023-05-10T08:39:39;5.72;;;3.70;;
47251;SDS011;32991;51.374;11.586;2023-05-10T08:42:05;12.45;;;3.40;;
47251;SDS011;32991;51.374;11.586;2023-05-10T08:44:32;3.28;;;2.78;;
47251;SDS011;32991;51.374;11.586;2023-05-10T08:47:04;2.35;;;2.15;;
47251;SDS011;32991;51.374;11.586;2023-05-10T08:49:33;2.45;;;2.25;;
47251;SDS011;32991;51.374;11.586;2023-05-10T08:52:01;2.20;;;2.00;;
47251;SDS011;32991;51.374;11.586;2023-05-10T08:54:30;3.10;;;1.73;;
47251;SDS011;32991;51.374;11.586;2023-05-10T08:56:57;2.00;;;1.90;;
47251;SDS011;32991;51.374;11.586;2023-05-10T08:59:24;3.25;;;1.90;;
47251;SDS011;32991;51.374;11.586;2023-05-10T09:01:51;1.77;;;1.67;;
47251;SDS011;32991;51.374;11.586;2023-05-10T09:04:19;2.30;;;1.80;;
47251;SDS011;32991;51.374;11.586;2023-05-10T09:06:47;2.33;;;1.80;;
47251;SDS011;32991;51.374;11.586;2023-05-10T09:09:14;1.90;;;1.80;;
47251;SDS011;32991;51.374;11.586;2023-05-10T09:11:41;1.92;;;1.80;;
47251;SDS011;32991;51.374;11.586;2023-05-10T09:14:07;1.70;;;1.60;;
47251;SDS011;32991;51.374;11.586;2023-05-10T09:16:35;2.08;;;1.58;;
47251;SDS011;32991;51.374;11.586;2023-05-10T09:19:02;2.75;;;1.90;;
47251;SDS011;32991;51.374;11.586;2023-05-10T09:21:29;1.60;;;1.50;;
47251;SDS011;32991;51.374;11.586;2023-05-10T09:23:56;1.80;;;1.70;;
47251;SDS011;32991;51.374;11.586;2023-05-10T09:26:23;2.22;;;1.52;;
47251;SDS011;32991;51.374;11.586;2023-05-10T09:28:50;1.88;;;1.77;;
47251;SDS011;32991;51.374;11.586;2023-05-10T09:31:18;1.90;;;1.80;;
47251;SDS011;32991;51.374;11.586;2023-05-10T09:33:46;1.90;;;1.80;;
47251;SDS011;32991;51.374;11.586;2023-05-10T09:36:13;2.05;;;1.85;;
47251;SDS011;32991;51.374;11.586;2023-05-10T09:41:21;1.95;;;1.85;;
47251;SDS011;32991;51.374;11.586;2023-05-10T09:43:49;2.10;;;1.90;;
47251;SDS011;32991;51.374;11.586;2023-05-10T09:46:15;1.77;;;1.30;;
47251;SDS011;32991;51.374;11.586;2023-05-10T09:48:46;1.45;;;1.35;;
47251;SDS011;32991;51.374;11.586;2023-05-10T09:51:20;2.35;;;1.42;;
47251;SDS011;32991;51.374;11.586;2023-05-10T09:53:47;2.20;;;1.27;;
47251;SDS011;32991;51.374;11.586;2023-05-10T09:56:13;1.48;;;1.25;;
47251;SDS011;32991;51.374;11.586;2023-05-10T09:59:07;1.30;;;1.20;;
47251;SDS011;32991;51.374;11.586;2023-05-10T10:01:37;1.13;;;1.10;;
47251;SDS011;32991;51.374;11.586;2023-05-10T10:04:04;1.48;;;1.30;;
47251;SDS011;32991;51.374;11.586;2023-05-10T10:06:36;2.25;;;1.20;;
47251;SDS011;32991;51.374;11.586;2023-05-10T10:09:06;1.40;;;1.30;;
47251;SDS011;32991;51.374;11.586;2023-05-10T10:11:37;1.10;;;1.10;;
47251;SDS011;32991;51.374;11.586;2023-05-10T10:14:04;1.52;;;1.42;;
47251;SDS011;32991;51.374;11.586;2023-05-10T10:16:32;3.42;;;1.30;;
47251;SDS011;32991;51.374;11.586;2023-05-10T10:18:58;3.80;;;1.55;;
47251;SDS011;32991;51.374;11.586;2023-05-10T10:21:25;1.98;;;1.33;;
47251;SDS011;32991;51.374;11.586;2023-05-10T10:23:52;1.45;;;1.10;;
47251;SDS011;32991;51.374;11.586;2023-05-10T10:26:19;0.90;;;0.90;;
47251;SDS011;32991;51.374;11.586;2023-05-10T10:34:25;1.20;;;1.10;;
47251;SDS011;32991;51.374;11.586;2023-05-10T10:36:56;1.38;;;1.27;;
47251;SDS011;32991;51.374;11.586;2023-05-10T10:39:23;1.60;;;1.50;;
47251;SDS011;32991;51.374;11.586;2023-05-10T10:41:56;1.67;;;1.58;;
47251;SDS011;32991;51.374;11.586;2023-05-10T10:54:52;1.90;;;1.80;;
47251;SDS011;32991;51.374;11.586;2023-05-10T10:57:24;2.15;;;2.05;;
47251;SDS011;32991;51.374;11.586;2023-05-10T11:02:45;1.60;;;1.50;;
47251;SDS011;32991;51.374;11.586;2023-05-10T11:08:26;1.45;;;1.02;;
47251;SDS011;32991;51.374;11.586;2023-05-10T11:11:03;0.93;;;0.93;;
47251;SDS011;32991;51.374;11.586;2023-05-10T11:13:34;2.78;;;1.08;;
47251;SDS011;32991;51.374;11.586;2023-05-10T11:18:57;1.30;;;1.20;;
47251;SDS011;32991;51.374;11.586;2023-05-10T11:21:25;1.10;;;1.10;;
47251;SDS011;32991;51.374;11.586;2023-05-10T11:23:53;2.80;;;1.33;;
47251;SDS011;32991;51.374;11.586;2023-05-10T11:26:57;1.20;;;1.20;;
47251;SDS011;32991;51.374;11.586;2023-05-10T11:29:17;3.13;;;1.70;;
47251;SDS011;32991;51.374;11.586;2023-05-10T11:31:44;3.15;;;1.80;;
47251;SDS011;32991;51.374;11.586;2023-05-10T11:34:22;1.70;;;1.42;;
47251;SDS011;32991;51.374;11.586;2023-05-10T11:36:53;2.38;;;1.20;;
47251;SDS011;32991;51.374;11.586;2023-05-10T11:39:20;1.40;;;1.30;;
47251;SDS011;32991;51.374;11.586;2023-05-10T11:41:48;1.50;;;1.40;;
47251;SDS011;32991;51.374;11.586;2023-05-10T11:44:15;1.95;;;1.45;;
47251;SDS011;32991;51.374;11.586;2023-05-10T11:46:42;1.10;;;1.00;;
47251;SDS011;32991;51.374;11.586;2023-05-10T11:49:09;1.30;;;1.02;;
47251;SDS011;32991;51.374;11.586;2023-05-10T11:51:36;0.90;;;0.90;;
47251;SDS011;32991;51.374;11.586;2023-05-10T11:54:06;2.05;;;1.10;;
47251;SDS011;32991;51.374;11.586;2023-05-10T11:56:37;1.70;;;1.13;;
47251;SDS011;32991;51.374;11.586;2023-05-10T11:59:04;1.33;;;1.23;;
47251;SDS011;32991;51.374;11.586;2023-05-10T12:01:31;2.08;;;0.90;;
47251;SDS011;32991;51.374;11.586;2023-05-10T12:03:58;1.70;;;0.85;;
47251;SDS011;32991;51.374;11.586;2023-05-10T12:06:31;0.80;;;0.80;;
47251;SDS011;32991;51.374;11.586;2023-05-10T12:08:58;0.50;;;0.50;;
47251;SDS011;32991;51.374;11.586;2023-05-10T12:11:25;0.90;;;0.80;;
47251;SDS011;32991;51.374;11.586;2023-05-10T12:13:53;1.83;;;0.70;;
47251;SDS011;32991;51.374;11.586;2023-05-10T12:16:22;0.57;;;0.57;;
47251;SDS011;32991;51.374;11.586;2023-05-10T12:18:50;0.85;;;0.50;;
47251;SDS011;32991;51.374;11.586;2023-05-10T12:21:20;0.73;;;0.60;;
47251;SDS011;32991;51.374;11.586;2023-05-10T12:23:48;0.50;;;0.50;;
47251;SDS011;32991;51.374;11.586;2023-05-10T12:26:16;0.60;;;0.50;;
47251;SDS011;32991;51.374;11.586;2023-05-10T12:28:42;1.33;;;0.55;;
47251;SDS011;32991;51.374;11.586;2023-05-10T12:31:09;1.08;;;0.40;;
47251;SDS011;32991;51.374;11.586;2023-05-10T12:33:36;0.90;;;0.70;;
47251;SDS011;32991;51.374;11.586;2023-05-10T12:36:09;1.77;;;0.60;;
47251;SDS011;32991;51.374;11.586;2023-05-10T12:38:36;0.57;;;0.57;;
47251;SDS011;32991;51.374;11.586;2023-05-10T12:41:09;0.82;;;0.65;;
47251;SDS011;32991;51.374;11.586;2023-05-10T12:43:37;0.73;;;0.50;;
47251;SDS011;32991;51.374;11.586;2023-05-10T12:46:07;0.70;;;0.45;;
47251;SDS011;32991;51.374;11.586;2023-05-10T12:48:35;1.05;;;0.60;;
47251;SDS011;32991;51.374;11.586;2023-05-10T12:51:03;1.23;;;0.60;;
47251;SDS011;32991;51.374;11.586;2023-05-10T12:53:29;1.25;;;0.57;;
47251;SDS011;32991;51.374;11.586;2023-05-10T12:55:57;0.82;;;0.80;;
47251;SDS011;32991;51.374;11.586;2023-05-10T12:58:23;0.45;;;0.43;;
47251;SDS011;32991;51.374;11.586;2023-05-10T13:01:01;1.52;;;0.77;;
47251;SDS011;32991;51.374;11.586;2023-05-10T13:03:27;1.40;;;0.90;;
47251;SDS011;32991;51.374;11.586;2023-05-10T13:05:54;1.00;;;0.63;;
47251;SDS011;32991;51.374;11.586;2023-05-10T13:08:21;0.90;;;0.63;;
47251;SDS011;32991;51.374;11.586;2023-05-10T13:10:47;0.73;;;0.60;;
47251;SDS011;32991;51.374;11.586;2023-05-10T13:13:14;1.20;;;0.75;;
47251;SDS011;32991;51.374;11.586;2023-05-10T13:15:41;1.13;;;0.70;;
47251;SDS011;32991;51.374;11.586;2023-05-10T13:18:07;0.85;;;0.80;;
47251;SDS011;32991;51.374;11.586;2023-05-10T13:20:34;0.70;;;0.70;;
47251;SDS011;32991;51.374;11.586;2023-05-10T13:23:01;0.85;;;0.85;;
47251;SDS011;32991;51.374;11.586;2023-05-10T13:25:28;0.77;;;0.60;;
47251;SDS011;32991;51.374;11.586;2023-05-10T13:27:55;1.27;;;0.75;;
47251;SDS011;32991;51.374;11.586;2023-05-10T13:30:21;0.60;;;0.60;;
47251;SDS011;32991;51.374;11.586;2023-05-10T13:32:49;0.88;;;0.85;;
47251;SDS011;32991;51.374;11.586;2023-05-10T13:35:16;0.85;;;0.70;;
47251;SDS011;32991;51.374;11.586;2023-05-10T13:37:42;0.60;;;0.60;;
47251;SDS011;32991;51.374;11.586;2023-05-10T13:40:09;0.95;;;0.77;;
47251;SDS011;32991;51.374;11.586;2023-05-10T13:42:36;0.65;;;0.65;;
47251;SDS011;32991;51.374;11.586;2023-05-10T13:45:03;1.92;;;0.95;;
47251;SDS011;32991;51.374;11.586;2023-05-10T13:47:30;3.03;;;0.95;;
47251;SDS011;32991;51.374;11.586;2023-05-10T13:49:57;0.80;;;0.80;;
47251;SDS011;32991;51.374;11.586;2023-05-10T13:52:24;1.00;;;0.95;;
47251;SDS011;32991;51.374;11.586;2023-05-10T13:54:51;3.20;;;2.80;;
47251;SDS011;32991;51.374;11.586;2023-05-10T13:57:21;3.95;;;3.45;;
47251;SDS011;32991;51.374;11.586;2023-05-10T13:59:48;2.25;;;1.60;;
47251;SDS011;32991;51.374;11.586;2023-05-10T14:02:14;1.38;;;1.27;;
47251;SDS011;32991;51.374;11.586;2023-05-10T14:04:41;1.77;;;1.20;;
47251;SDS011;32991;51.374;11.586;2023-05-10T14:07:07;3.00;;;2.70;;
47251;SDS011;32991;51.374;11.586;2023-05-10T14:09:34;1.60;;;1.50;;
47251;SDS011;32991;51.374;11.586;2023-05-10T14:12:00;2.60;;;2.40;;
47251;SDS011;32991;51.374;11.586;2023-05-10T14:14:27;2.17;;;1.77;;
47251;SDS011;32991;51.374;11.586;2023-05-10T14:16:55;7.75;;;3.65;;
47251;SDS011;32991;51.374;11.586;2023-05-10T14:19:22;1.88;;;1.77;;
47251;SDS011;32991;51.374;11.586;2023-05-10T14:21:48;4.32;;;1.70;;
47251;SDS011;32991;51.374;11.586;2023-05-10T14:24:15;1.40;;;1.30;;
47251;SDS011;32991;51.374;11.586;2023-05-10T14:26:42;2.65;;;1.98;;
47251;SDS011;32991;51.374;11.586;2023-05-10T14:29:08;1.90;;;1.80;;
47251;SDS011;32991;51.374;11.586;2023-05-10T14:31:37;3.20;;;2.22;;
47251;SDS011;32991;51.374;11.586;2023-05-10T14:34:04;2.38;;;1.70;;
47251;SDS011;32991;51.374;11.586;2023-05-10T14:36:31;1.70;;;1.60;;
47251;SDS011;32991;51.374;11.586;2023-05-10T14:38:58;1.98;;;1.83;;
47251;SDS011;32991;51.374;11.586;2023-05-10T14:41:24;1.95;;;1.77;;
47251;SDS011;32991;51.374;11.586;2023-05-10T14:43:51;2.20;;;1.60;;
47251;SDS011;32991;51.374;11.586;2023-05-10T14:46:17;1.58;;;1.48;;
47251;SDS011;32991;51.374;11.586;2023-05-10T14:48:44;1.90;;;1.80;;
47251;SDS011;32991;51.374;11.586;2023-05-10T14:51:11;1.80;;;1.70;;
47251;SDS011;32991;51.374;11.586;2023-05-10T14:53:37;2.38;;;2.13;;
47251;SDS011;32991;51.374;11.586;2023-05-10T14:56:04;2.05;;;1.77;;
47251;SDS011;32991;51.374;11.586;2023-05-10T14:58:30;2.03;;;1.77;;
47251;SDS011;32991;51.374;11.586;2023-05-10T15:00:59;1.58;;;1.48;;
47251;SDS011;32991;51.374;11.586;2023-05-10T15:03:26;2.72;;;1.80;;
47251;SDS011;32991;51.374;11.586;2023-05-10T15:05:53;2.05;;;1.85;;
47251;SDS011;32991;51.374;11.586;2023-05-10T15:08:22;2.90;;;1.80;;
47251;SDS011;32991;51.374;11.586;2023-05-10T15:10:50;1.95;;;1.85;;
47251;SDS011;32991;51.374;11.586;2023-05-10T15:13:17;3.70;;;1.90;;
47251;SDS011;32991;51.374;11.586;2023-05-10T15:15:44;3.70;;;2.10;;
47251;SDS011;32991;51.374;11.586;2023-05-10T15:18:10;2.03;;;1.83;;
47251;SDS011;32991;51.374;11.586;2023-05-10T15:20:37;2.33;;;2.10;;